createdAt,value
2018-02-08T00:01:22.608Z,0.60
2018-02-08T00:03:51.615Z,0.50
2018-02-08T00:06:19.560Z,0.50
2018-02-08T00:08:48.228Z,0.60
2018-02-08T00:11:16.315Z,0.50
2018-02-08T00:13:44.384Z,0.50
2018-02-08T00:16:12.382Z,0.50
2018-02-08T00:18:40.424Z,0.50
2018-02-08T00:21:09.213Z,0.50
2018-02-08T00:23:37.220Z,0.50
2018-02-08T00:26:05.251Z,0.50
2018-02-08T00:28:33.323Z,0.50
2018-02-08T00:31:01.219Z,0.50
2018-02-08T00:33:29.171Z,0.60
2018-02-08T00:35:57.166Z,0.60
2018-02-08T00:38:25.813Z,0.60
2018-02-08T00:40:53.825Z,0.60
2018-02-08T00:43:22.586Z,0.60
2018-02-08T00:45:50.643Z,0.60
2018-02-08T00:48:18.588Z,0.60
2018-02-08T00:50:46.704Z,0.60
2018-02-08T00:53:16.386Z,0.50
2018-02-08T00:55:44.458Z,0.50
2018-02-08T00:58:12.357Z,0.60
2018-02-08T01:00:41.221Z,0.60
2018-02-08T01:03:09.594Z,0.50
2018-02-08T01:05:37.480Z,0.50
2018-02-08T01:08:05.427Z,0.60
2018-02-08T01:10:34.112Z,0.50
2018-02-08T01:13:01.999Z,0.50
2018-02-08T01:15:29.954Z,0.50
2018-02-08T01:17:57.818Z,0.50
2018-02-08T01:20:25.837Z,0.50
2018-02-08T01:22:54.700Z,0.40
2018-02-08T01:25:22.568Z,0.40
2018-02-08T01:27:50.719Z,0.40
2018-02-08T01:30:18.688Z,0.40
2018-02-08T01:32:46.584Z,0.30
2018-02-08T01:35:14.624Z,0.30
2018-02-08T01:37:42.693Z,0.30
2018-02-08T01:40:10.763Z,0.30
2018-02-08T01:42:38.661Z,0.30
2018-02-08T01:45:06.519Z,0.30
2018-02-08T01:47:34.364Z,0.40
2018-02-08T01:50:02.368Z,0.40
2018-02-08T01:52:31.152Z,0.40
2018-02-08T01:54:59.033Z,0.40
2018-02-08T01:57:27.908Z,0.40
2018-02-08T01:59:55.778Z,0.40
2018-02-08T02:02:23.918Z,0.50
2018-02-08T02:04:51.889Z,0.50
2018-02-08T02:07:19.773Z,0.50
2018-02-08T02:09:47.720Z,0.40
2018-02-08T02:12:15.763Z,0.40
2018-02-08T02:14:43.809Z,0.40
2018-02-08T02:17:12.588Z,0.40
2018-02-08T02:19:41.034Z,0.40
2018-02-08T02:22:08.928Z,0.40
2018-02-08T02:24:36.865Z,0.40
2018-02-08T02:27:04.764Z,0.40
2018-02-08T02:29:32.700Z,0.40
2018-02-08T02:32:00.771Z,0.40
2018-02-08T02:34:28.637Z,0.40
2018-02-08T02:36:56.536Z,0.40
2018-02-08T02:39:24.608Z,0.40
2018-02-08T02:41:52.573Z,0.40
2018-02-08T02:44:20.516Z,0.40
2018-02-08T02:46:48.484Z,0.40
2018-02-08T02:49:16.476Z,0.40
2018-02-08T02:51:46.369Z,0.30
2018-02-08T02:54:15.701Z,0.30
2018-02-08T02:56:43.735Z,0.30
2018-02-08T02:59:11.887Z,0.30
2018-02-08T03:01:39.776Z,0.30
2018-02-08T03:04:07.747Z,0.30
2018-02-08T03:06:35.650Z,0.30
2018-02-08T03:09:03.720Z,0.30
2018-02-08T03:11:31.677Z,0.30
2018-02-08T03:13:59.741Z,0.30
2018-02-08T03:16:28.430Z,0.20
2018-02-08T03:18:56.686Z,0.20
2018-02-08T03:21:24.650Z,0.20
2018-02-08T03:23:52.791Z,0.20
2018-02-08T03:26:20.792Z,0.20
2018-02-08T03:28:48.993Z,0.30
2018-02-08T03:31:17.756Z,0.20
2018-02-08T03:33:45.830Z,0.20
2018-02-08T03:36:13.741Z,0.30
2018-02-08T03:38:42.583Z,0.20
2018-02-08T03:41:10.549Z,0.20
2018-02-08T03:43:38.420Z,0.20
2018-02-08T03:46:06.386Z,0.20
2018-02-08T03:48:35.074Z,0.20
2018-02-08T03:51:03.113Z,0.20
2018-02-08T03:53:31.116Z,0.20
2018-02-08T03:55:58.913Z,0.20
2018-02-08T03:58:26.784Z,0.10
2018-02-08T04:00:55.467Z,0.10
2018-02-08T04:03:23.435Z,0.10
2018-02-08T04:05:51.471Z,0.10
2018-02-08T04:08:19.434Z,0.10
2018-02-08T04:10:47.305Z,0.10
2018-02-08T04:13:15.270Z,0.10
2018-02-08T04:15:43.165Z,0.10
2018-02-08T04:18:11.110Z,0.10
2018-02-08T04:20:39.283Z,0.10
2018-02-08T04:23:07.249Z,0.10
2018-02-08T04:25:35.431Z,0.00
2018-02-08T04:28:03.315Z,0.00
2018-02-08T04:30:31.124Z,0.00
2018-02-08T04:32:59.121Z,0.00
2018-02-08T04:35:27.021Z,0.10
2018-02-08T04:37:55.066Z,0.00
2018-02-08T04:40:34.937Z,0.10
2018-02-08T04:43:14.959Z,0.10
2018-02-08T04:45:56.584Z,0.10
2018-02-08T04:48:24.755Z,0.10
2018-02-08T04:50:53.445Z,0.10
2018-02-08T04:53:22.168Z,0.10
2018-02-08T04:55:50.175Z,0.10
2018-02-08T04:58:18.037Z,0.10
2018-02-08T05:00:45.923Z,0.10
2018-02-08T05:03:13.893Z,0.10
2018-02-08T05:05:41.932Z,0.10
2018-02-08T05:08:10.239Z,0.10
2018-02-08T05:10:39.011Z,0.10
2018-02-08T05:13:06.969Z,0.10
2018-02-08T05:15:35.059Z,0.10
2018-02-08T05:18:03.008Z,0.10
2018-02-08T05:20:30.974Z,0.10
2018-02-08T05:22:58.944Z,0.10
2018-02-08T05:25:26.841Z,0.10
2018-02-08T05:27:54.717Z,0.10
2018-02-08T05:30:22.650Z,0.10
2018-02-08T05:32:50.819Z,0.10
2018-02-08T05:35:18.825Z,0.10
2018-02-08T05:37:46.698Z,0.10
2018-02-08T05:40:15.585Z,0.10
2018-02-08T05:42:43.442Z,0.10
2018-02-08T05:45:12.123Z,0.10
2018-02-08T05:47:41.014Z,0.20
2018-02-08T05:50:08.924Z,0.10
2018-02-08T05:52:37.033Z,0.10
2018-02-08T05:55:05.026Z,0.10
2018-02-08T05:57:34.028Z,0.20
2018-02-08T06:00:02.150Z,0.10
2018-02-08T06:02:30.745Z,0.10
2018-02-08T06:04:58.608Z,0.10
2018-02-08T06:07:26.680Z,0.10
2018-02-08T06:09:54.688Z,0.10
2018-02-08T06:12:22.622Z,0.10
2018-02-08T06:14:50.486Z,0.10
2018-02-08T06:17:19.713Z,0.10
2018-02-08T06:19:47.582Z,0.10
2018-02-08T06:22:16.658Z,0.10
2018-02-08T06:24:45.137Z,0.10
2018-02-08T06:27:13.409Z,0.10
2018-02-08T06:29:41.521Z,0.10
2018-02-08T06:32:10.168Z,0.10
2018-02-08T06:34:38.025Z,0.10
2018-02-08T06:37:06.128Z,0.10
2018-02-08T06:39:35.661Z,0.10
2018-02-08T06:42:04.413Z,0.10
2018-02-08T06:44:32.769Z,0.10
2018-02-08T06:47:00.637Z,0.20
2018-02-08T06:49:28.520Z,0.10
2018-02-08T06:51:56.573Z,0.10
2018-02-08T06:54:25.006Z,0.20
2018-02-08T06:56:52.918Z,0.20
2018-02-08T06:59:20.824Z,0.20
2018-02-08T07:01:49.529Z,0.20
2018-02-08T07:04:18.770Z,0.20
2018-02-08T07:06:46.662Z,0.20
2018-02-08T07:09:14.643Z,0.20
2018-02-08T07:11:42.538Z,0.20
2018-02-08T07:14:10.375Z,0.20
2018-02-08T07:16:38.246Z,0.30
2018-02-08T07:19:06.123Z,0.30
2018-02-08T07:21:34.786Z,0.30
2018-02-08T07:24:02.729Z,0.30
2018-02-08T07:26:30.693Z,0.30
2018-02-08T07:28:59.206Z,0.30
2018-02-08T07:31:27.041Z,0.30
2018-02-08T07:33:54.940Z,0.30
2018-02-08T07:36:22.815Z,0.30
2018-02-08T07:38:51.492Z,0.30
2018-02-08T07:41:19.632Z,0.30
2018-02-08T07:43:47.704Z,0.30
2018-02-08T07:46:15.585Z,0.30
2018-02-08T07:48:43.846Z,0.30
2018-02-08T07:51:11.725Z,0.20
2018-02-08T07:53:40.605Z,0.20
2018-02-08T07:56:08.595Z,0.30
2018-02-08T07:58:36.545Z,0.30
2018-02-08T08:01:04.711Z,0.40
2018-02-08T08:03:32.671Z,0.40
2018-02-08T08:06:01.301Z,0.40
2018-02-08T08:08:29.334Z,0.40
2018-02-08T08:10:57.651Z,0.30
2018-02-08T08:13:25.590Z,0.40
2018-02-08T08:15:53.585Z,0.40
2018-02-08T08:18:21.521Z,0.40
2018-02-08T08:20:49.433Z,0.40
2018-02-08T08:23:18.275Z,0.50
2018-02-08T08:25:46.142Z,0.50
2018-02-08T08:28:14.858Z,0.50
2018-02-08T08:30:43.227Z,0.70
2018-02-08T08:33:11.309Z,0.70
2018-02-08T08:35:39.307Z,0.70
2018-02-08T08:38:08.320Z,0.90
2018-02-08T08:40:36.414Z,0.90
2018-02-08T08:43:04.307Z,1.00
2018-02-08T08:45:32.347Z,1.10
2018-02-08T08:48:00.305Z,1.10
2018-02-08T08:50:28.282Z,1.20
2018-02-08T08:52:56.256Z,1.20
2018-02-08T08:55:24.233Z,1.10
2018-02-08T08:57:52.129Z,1.00
2018-02-08T09:00:20.063Z,1.20
2018-02-08T09:02:47.853Z,1.00
2018-02-08T09:05:15.995Z,1.00
2018-02-08T09:07:43.869Z,1.10
2018-02-08T09:10:12.388Z,1.20
2018-02-08T09:12:41.130Z,1.40
2018-02-08T09:15:09.027Z,1.30
2018-02-08T09:17:38.476Z,1.50
2018-02-08T09:20:06.350Z,1.50
2018-02-08T09:22:34.379Z,1.70
2018-02-08T09:25:04.008Z,1.80
2018-02-08T09:27:32.939Z,1.90
2018-02-08T09:30:00.748Z,1.90
2018-02-08T09:32:29.631Z,1.90
2018-02-08T09:34:57.975Z,1.90
2018-02-08T09:37:25.939Z,1.80
2018-02-08T09:39:53.908Z,2.00
2018-02-08T09:42:21.978Z,2.20
2018-02-08T09:44:49.947Z,2.10
2018-02-08T09:47:17.840Z,2.30
2018-02-08T09:49:45.782Z,2.60
2018-02-08T09:52:13.751Z,2.70
2018-02-08T09:54:41.650Z,2.50
2018-02-08T09:57:09.445Z,2.70
2018-02-08T09:59:38.079Z,2.90
2018-02-08T10:02:06.053Z,2.80
2018-02-08T10:04:34.932Z,2.90
2018-02-08T10:07:02.894Z,2.90
2018-02-08T10:09:30.863Z,3.10
2018-02-08T10:11:58.832Z,3.00
2018-02-08T10:14:26.695Z,3.00
2018-02-08T10:16:54.670Z,3.10
2018-02-08T10:19:22.576Z,3.10
2018-02-08T10:21:51.328Z,2.90
2018-02-08T10:24:19.219Z,2.90
2018-02-08T10:26:47.169Z,3.10
2018-02-08T10:29:15.125Z,3.10
2018-02-08T10:31:43.094Z,3.20
2018-02-08T10:34:11.371Z,3.20
2018-02-08T10:36:39.279Z,3.40
2018-02-08T10:39:08.029Z,3.30
2018-02-08T10:41:36.100Z,3.30
2018-02-08T10:44:04.113Z,3.40
2018-02-08T10:46:32.961Z,3.00
2018-02-08T10:49:00.923Z,3.00
2018-02-08T10:51:28.891Z,3.30
2018-02-08T10:53:56.962Z,3.60
2018-02-08T10:56:24.861Z,3.60
2018-02-08T10:58:53.612Z,3.70
2018-02-08T11:01:21.642Z,3.50
2018-02-08T11:03:50.486Z,3.60
2018-02-08T11:06:18.549Z,3.60
2018-02-08T11:08:46.515Z,3.40
2018-02-08T11:11:14.417Z,3.30
2018-02-08T11:13:42.273Z,3.10
2018-02-08T11:16:10.683Z,3.00
2018-02-08T11:18:39.529Z,3.10
2018-02-08T11:21:07.405Z,3.10
2018-02-08T11:23:35.564Z,3.00
2018-02-08T11:26:04.856Z,2.90
2018-02-08T11:28:33.186Z,2.90
2018-02-08T11:31:01.852Z,2.80
2018-02-08T11:33:30.714Z,2.80
2018-02-08T11:35:58.487Z,2.90
2018-02-08T11:38:26.443Z,2.80
2018-02-08T11:40:54.351Z,2.90
2018-02-08T11:43:23.210Z,2.90
2018-02-08T11:45:51.169Z,2.90
2018-02-08T11:48:19.139Z,3.00
2018-02-08T11:50:47.132Z,2.80
2018-02-08T11:53:16.102Z,2.90
2018-02-08T11:55:44.313Z,3.00
2018-02-08T11:58:12.980Z,2.90
2018-02-08T12:00:40.931Z,2.90
2018-02-08T12:03:09.008Z,2.90
2018-02-08T12:05:36.964Z,3.00
2018-02-08T12:08:05.857Z,3.30
2018-02-08T12:10:33.931Z,3.10
2018-02-08T12:13:01.926Z,3.00
2018-02-08T12:15:29.989Z,3.10
2018-02-08T12:17:57.863Z,3.20
2018-02-08T12:20:25.801Z,3.10
2018-02-08T12:22:53.693Z,2.90
2018-02-08T12:25:21.862Z,2.80
2018-02-08T12:27:49.709Z,2.80
2018-02-08T12:30:17.787Z,2.80
2018-02-08T12:32:45.854Z,2.80
2018-02-08T12:35:13.849Z,2.90
2018-02-08T12:37:42.012Z,3.00
2018-02-08T12:40:09.962Z,3.30
2018-02-08T12:42:37.834Z,3.30
2018-02-08T12:45:05.699Z,3.30
2018-02-08T12:47:33.783Z,3.50
2018-02-08T12:50:01.770Z,3.70
2018-02-08T12:52:29.704Z,4.10
2018-02-08T12:54:57.805Z,4.10
2018-02-08T12:57:25.687Z,3.90
2018-02-08T12:59:54.534Z,3.50
2018-02-08T13:02:22.612Z,3.40
2018-02-08T13:04:50.595Z,3.20
2018-02-08T13:07:18.650Z,3.30
2018-02-08T13:09:46.613Z,3.20
2018-02-08T13:12:14.585Z,2.90
2018-02-08T13:14:42.454Z,3.10
2018-02-08T13:17:10.340Z,3.10
2018-02-08T13:19:38.323Z,3.20
2018-02-08T13:22:06.363Z,3.30
2018-02-08T13:24:34.357Z,3.20
2018-02-08T13:27:02.279Z,3.40
2018-02-08T13:29:30.885Z,3.40
2018-02-08T13:31:58.946Z,3.40
2018-02-08T13:34:26.924Z,3.70
2018-02-08T13:36:55.495Z,3.80
2018-02-08T13:39:27.366Z,3.70
2018-02-08T13:41:55.332Z,3.60
2018-02-08T13:44:23.301Z,3.80
2018-02-08T13:46:51.785Z,4.00
2018-02-08T13:49:23.985Z,4.00
2018-02-08T13:51:54.515Z,4.20
2018-02-08T13:54:38.173Z,4.40
2018-02-08T13:57:10.321Z,4.40
2018-02-08T13:59:50.709Z,5.20
2018-02-08T14:02:18.757Z,5.20
2018-02-08T14:04:47.396Z,5.00
2018-02-08T14:07:15.468Z,5.00
2018-02-08T14:09:44.711Z,4.70
2018-02-08T14:12:14.302Z,4.20
2018-02-08T14:14:42.156Z,4.20
2018-02-08T14:17:10.854Z,4.20
2018-02-08T14:19:39.508Z,4.00
2018-02-08T14:22:07.893Z,4.00
2018-02-08T14:24:35.864Z,4.00
2018-02-08T14:27:03.828Z,3.70
2018-02-08T14:29:31.845Z,3.40
2018-02-08T14:32:00.580Z,3.40
2018-02-08T14:34:28.588Z,3.40
2018-02-08T14:36:56.551Z,3.00
2018-02-08T14:39:24.408Z,2.80
2018-02-08T14:41:52.289Z,2.80
2018-02-08T14:44:21.042Z,2.70
2018-02-08T14:46:48.906Z,2.70
2018-02-08T14:49:16.774Z,2.70
2018-02-08T14:51:44.743Z,2.80
2018-02-08T14:54:12.646Z,2.80
2018-02-08T14:56:40.577Z,2.70
2018-02-08T14:59:08.480Z,2.60
2018-02-08T15:01:37.281Z,2.50
2018-02-08T15:04:05.408Z,2.40
2018-02-08T15:06:33.888Z,2.40
2018-02-08T15:09:02.066Z,2.40
2018-02-08T15:11:30.344Z,2.40
2018-02-08T15:13:58.282Z,2.30
2018-02-08T15:16:26.271Z,2.10
2018-02-08T15:18:54.756Z,2.10
2018-02-08T15:21:22.824Z,2.10
2018-02-08T15:23:50.898Z,2.10
2018-02-08T15:26:18.866Z,2.10
2018-02-08T15:28:46.944Z,2.00
2018-02-08T15:31:14.744Z,2.00
2018-02-08T15:33:43.432Z,1.80
2018-02-08T15:36:12.528Z,1.80
2018-02-08T15:38:41.371Z,1.90
2018-02-08T16:21:08.558Z,1.70
2018-02-08T16:23:36.623Z,1.70
2018-02-08T16:26:04.722Z,1.70
2018-02-08T16:28:33.497Z,1.60
2018-02-08T16:31:01.494Z,1.60
2018-02-08T16:33:30.733Z,1.60
2018-02-08T16:35:58.733Z,1.50
2018-02-08T16:38:27.083Z,1.50
2018-02-08T16:40:55.046Z,1.50
2018-02-08T16:43:23.020Z,1.50
2018-02-08T16:45:55.572Z,1.50
2018-02-08T16:48:24.105Z,1.50
2018-02-08T16:50:53.077Z,1.50
2018-02-08T16:53:21.146Z,1.50
2018-02-08T16:55:49.237Z,1.50
2018-02-08T16:58:17.269Z,1.40
2018-02-08T17:00:45.612Z,1.50
2018-02-08T17:03:14.863Z,1.50
2018-02-08T17:05:42.720Z,1.50
2018-02-08T17:08:10.618Z,1.40
2018-02-08T17:10:39.029Z,1.40
2018-02-08T17:13:07.086Z,1.40
2018-02-08T17:15:35.776Z,1.40
2018-02-08T17:18:03.751Z,1.40
2018-02-08T17:20:31.638Z,1.50
2018-02-08T17:22:59.405Z,1.50
2018-02-08T17:25:27.276Z,1.50
2018-02-08T17:27:55.027Z,1.40
2018-02-08T17:30:22.878Z,1.40
2018-02-08T17:32:50.674Z,1.40
2018-02-08T17:35:18.615Z,1.40
2018-02-08T17:37:46.526Z,1.40
2018-02-08T17:40:15.164Z,1.40
2018-02-08T17:42:43.132Z,1.40
2018-02-08T17:45:10.899Z,1.30
2018-02-08T17:47:38.793Z,1.40
2018-02-08T17:50:06.675Z,1.30
2018-02-08T17:52:35.428Z,1.30
2018-02-08T17:55:03.285Z,1.30
2018-02-08T17:57:31.570Z,1.30
2018-02-08T17:59:59.628Z,1.30
2018-02-08T18:02:27.619Z,1.40
2018-02-08T18:04:55.573Z,1.30
2018-02-08T18:07:23.849Z,1.30
2018-02-08T18:09:51.909Z,1.30
2018-02-08T18:12:19.995Z,1.30
2018-02-08T18:14:48.055Z,1.40
2018-02-08T18:17:15.850Z,1.40
2018-02-08T18:19:43.920Z,1.40
2018-02-08T18:22:11.987Z,1.30
2018-02-08T18:24:39.824Z,1.30
2018-02-08T18:27:07.880Z,1.30
2018-02-08T18:29:35.900Z,1.30
2018-02-08T18:32:03.839Z,1.30
2018-02-08T18:34:32.012Z,1.30
2018-02-08T18:36:59.900Z,1.40
2018-02-08T18:39:27.971Z,1.40
2018-02-08T18:41:55.845Z,1.30
2018-02-08T18:44:23.688Z,1.30
2018-02-08T18:46:51.709Z,1.30
2018-02-08T18:49:20.542Z,1.20
2018-02-08T18:51:48.446Z,1.20
2018-02-08T18:54:16.375Z,1.20
2018-02-08T18:56:44.352Z,1.20
2018-02-08T18:59:12.255Z,1.10
2018-02-08T19:01:40.283Z,1.20
2018-02-08T19:04:08.229Z,1.20
2018-02-08T19:06:36.227Z,1.20
2018-02-08T19:09:04.504Z,1.20
2018-02-08T19:11:32.614Z,1.20
2018-02-08T19:14:01.665Z,1.20
2018-02-08T19:16:29.631Z,1.20
2018-02-08T19:18:57.926Z,1.30
2018-02-08T19:21:25.883Z,1.30
2018-02-08T19:23:53.976Z,1.30
2018-02-08T19:26:21.935Z,1.20
2018-02-08T19:28:49.987Z,1.20
2018-02-08T19:31:17.877Z,1.20
2018-02-08T19:33:46.035Z,1.20
2018-02-08T19:36:13.955Z,1.20
2018-02-08T19:38:42.607Z,1.20
2018-02-08T19:41:10.650Z,1.20
2018-02-08T19:43:38.666Z,1.20
2018-02-08T19:46:07.834Z,1.20
2018-02-08T19:48:35.805Z,1.20
2018-02-08T19:51:03.574Z,1.20
2018-02-08T19:53:31.884Z,1.20
2018-02-08T19:56:00.727Z,1.20
2018-02-08T19:58:28.993Z,1.20
2018-02-08T20:00:57.187Z,1.20
2018-02-08T20:03:25.050Z,1.20
2018-02-08T20:05:53.536Z,1.20
2018-02-08T20:08:21.677Z,1.20
2018-02-08T20:10:49.588Z,1.30
2018-02-08T20:13:17.646Z,1.30
2018-02-08T20:15:45.617Z,1.30
2018-02-08T20:18:13.681Z,1.20
2018-02-08T20:20:41.808Z,1.20
2018-02-08T20:23:09.939Z,1.20
2018-02-08T20:25:42.894Z,1.30
2018-02-08T20:28:10.862Z,1.30
2018-02-08T20:30:39.142Z,1.30
2018-02-08T20:33:07.209Z,1.20
2018-02-08T20:35:35.004Z,1.20
2018-02-08T20:38:03.248Z,1.20
2018-02-08T20:40:31.262Z,1.20
2018-02-08T20:43:05.662Z,1.20
2018-02-08T20:45:33.743Z,1.20
2018-02-08T20:48:01.782Z,1.20
2018-02-08T20:50:29.960Z,1.20
2018-02-08T20:52:58.126Z,1.20
2018-02-08T20:55:26.068Z,1.10
2018-02-08T20:57:54.295Z,1.20
2018-02-08T21:00:23.400Z,1.20
2018-02-08T21:02:51.540Z,1.20
2018-02-08T21:05:19.740Z,1.20
2018-02-08T21:07:47.684Z,1.20
2018-02-08T21:10:15.684Z,1.20
2018-02-08T21:12:43.946Z,1.20
2018-02-08T21:15:12.268Z,1.20
2018-02-08T21:17:40.418Z,1.20
2018-02-08T21:20:08.661Z,1.20
2018-02-08T21:22:36.734Z,1.20
2018-02-08T21:25:04.802Z,1.10
2018-02-08T21:27:32.833Z,1.20
2018-02-08T21:30:00.947Z,1.20
2018-02-08T21:32:29.098Z,1.20
2018-02-08T21:34:57.587Z,1.20
2018-02-08T21:37:25.666Z,1.20
2018-02-08T21:39:54.159Z,1.20
2018-02-08T21:42:22.931Z,1.20
2018-02-08T21:44:51.164Z,1.20
2018-02-08T21:47:19.153Z,1.20
2018-02-08T21:49:47.248Z,1.30
2018-02-08T21:52:15.295Z,1.20
2018-02-08T21:54:43.408Z,1.30
2018-02-08T21:57:11.474Z,1.30
2018-02-08T21:59:39.560Z,1.30
2018-02-08T22:02:08.476Z,1.20
2018-02-08T22:04:37.205Z,1.20
2018-02-08T22:07:05.622Z,1.20
2018-02-08T22:09:34.325Z,1.20
2018-02-08T22:12:03.494Z,1.20
2018-02-08T22:14:31.750Z,1.20
2018-02-08T22:16:59.758Z,1.20
2018-02-08T22:19:28.560Z,1.20
2018-02-08T22:21:57.316Z,1.20
2018-02-08T22:24:25.160Z,1.20
2018-02-08T22:26:53.332Z,1.20
2018-02-08T22:29:21.301Z,1.20
2018-02-08T22:31:49.369Z,1.10
2018-02-08T22:34:17.268Z,1.20
2018-02-08T22:36:45.393Z,1.20
2018-02-08T22:39:13.506Z,1.20
2018-02-08T22:41:41.961Z,1.30
2018-02-08T22:44:10.035Z,1.30
2018-02-08T22:46:38.023Z,1.30
2018-02-08T22:49:05.973Z,1.20
2018-02-08T22:51:34.041Z,1.20
2018-02-08T22:54:02.523Z,1.20
2018-02-08T22:56:30.413Z,1.20
2018-02-08T22:58:58.290Z,1.20
2018-02-08T23:01:26.146Z,1.20
2018-02-08T23:03:54.125Z,1.20
2018-02-08T23:06:23.516Z,1.20
2018-02-08T23:08:51.750Z,1.20
2018-02-08T23:11:19.787Z,1.20
2018-02-08T23:13:48.378Z,1.20
2018-02-08T23:16:16.977Z,1.10
2018-02-08T23:18:44.875Z,1.10
2018-02-08T23:21:13.198Z,1.10
2018-02-08T23:23:41.940Z,1.10
2018-02-08T23:26:10.623Z,1.10
2018-02-08T23:28:38.593Z,1.10
2018-02-08T23:31:06.510Z,1.10
2018-02-08T23:33:35.146Z,1.10
2018-02-08T23:36:03.364Z,1.10
2018-02-08T23:38:32.434Z,1.10
2018-02-08T23:41:00.309Z,1.10
2018-02-08T23:43:29.172Z,1.10
2018-02-08T23:45:57.138Z,1.10
2018-02-08T23:48:25.331Z,1.20
2018-02-08T23:50:53.523Z,1.20
2018-02-08T23:53:21.991Z,1.20
2018-02-08T23:55:49.958Z,1.20
2018-02-08T23:58:17.830Z,1.20
